Terminal Aerodrome Forecast
Issued by NWS Louisville, KY

Home | Current Version | Previous Version | Text Only | Print | Product List | Glossary On
Versions: 1 2 3 4 5 6 7 8 9 10 11 12 13 14 15 16
000
FTUS43 KLMK 252320
TAFLEX
TAF
KLEX 252320Z 2600/2624 28011KT P6SM BKN050
     FM260400 24005KT P6SM SKC
     FM261300 21007KT P6SM SCT250=

USA.gov is the U.S. government's official web portal to all federal, state and local government web resources and services.